createdAt,value
2018-01-25T00:00:07.492Z,1.48
2018-01-25T00:02:34.895Z,1.77
2018-01-25T00:05:05.147Z,1.12
2018-01-25T00:07:33.006Z,1.75
2018-01-25T00:10:01.873Z,1.20
2018-01-25T00:12:30.966Z,1.33
2018-01-25T00:15:00.120Z,1.20
2018-01-25T00:17:26.805Z,2.12
2018-01-25T00:22:44.483Z,1.33
2018-01-25T00:52:40.218Z,1.67
2018-01-25T01:10:08.164Z,0.73
2018-01-25T01:12:35.227Z,0.70
2018-01-25T01:15:01.983Z,1.50
2018-01-25T01:17:29.174Z,1.90
2018-01-25T01:22:41.048Z,2.28
2018-01-25T01:25:07.830Z,1.60
2018-01-25T01:27:34.550Z,1.58
2018-01-25T01:30:02.317Z,1.48
2018-01-25T02:42:23.981Z,0.80
2018-01-25T02:44:50.979Z,0.70
2018-01-25T02:47:24.632Z,0.90
2018-01-25T02:49:52.107Z,0.73
2018-01-25T02:54:59.876Z,1.25
2018-01-25T02:57:28.451Z,0.80
2018-01-25T02:59:55.216Z,1.17
2018-01-25T03:02:22.740Z,1.40
2018-01-25T03:04:53.824Z,1.00
2018-01-25T03:07:20.541Z,0.82
2018-01-25T03:09:48.202Z,1.45
2018-01-25T03:12:15.164Z,0.80
2018-01-25T03:14:41.895Z,1.08
2018-01-25T03:17:09.150Z,1.80
2018-01-25T03:34:34.464Z,1.60
2018-01-25T03:37:02.095Z,1.20
2018-01-25T03:39:28.844Z,1.95
2018-01-25T03:44:42.781Z,1.23
2018-01-25T03:58:14.552Z,2.70
2018-01-25T04:08:41.798Z,4.45
2018-01-25T04:11:25.198Z,6.15
2018-01-25T04:13:52.858Z,6.57
2018-01-25T04:16:19.615Z,8.32
2018-01-25T04:18:46.801Z,7.93
2018-01-25T04:21:13.779Z,8.60
2018-01-25T04:44:41.351Z,8.40
2018-01-25T04:47:08.831Z,8.48
2018-01-25T04:49:43.743Z,7.57
2018-01-25T04:52:10.721Z,7.10
2018-01-25T05:11:20.258Z,9.48
2018-01-25T05:28:17.036Z,7.43
2018-01-25T08:04:09.977Z,2.72
2018-01-25T08:06:36.739Z,5.47
2018-01-25T08:09:03.661Z,4.90
2018-01-25T08:11:30.596Z,4.87
2018-01-25T08:36:33.631Z,2.30
2018-01-25T08:39:00.587Z,2.62
2018-01-25T08:41:33.156Z,2.70
2018-01-25T08:43:56.173Z,2.72
2018-01-25T08:46:22.900Z,5.85
2018-01-25T08:48:51.930Z,2.67
2018-01-25T08:51:18.672Z,2.35
2018-01-25T08:56:52.975Z,4.50
2018-01-25T08:59:19.923Z,3.58
2018-01-25T09:16:07.405Z,2.65
2018-01-25T09:18:35.027Z,1.80
2018-01-25T09:21:01.960Z,4.70
2018-01-25T09:28:58.740Z,2.80
2018-01-25T09:47:44.755Z,6.12
2018-01-25T09:50:11.464Z,6.60
2018-01-25T09:52:38.409Z,3.97
2018-01-25T09:55:05.136Z,4.85
2018-01-25T09:57:31.856Z,2.92
2018-01-25T09:59:58.571Z,7.07
2018-01-25T10:02:25.372Z,3.12
2018-01-25T10:04:52.132Z,6.03
2018-01-25T10:07:18.894Z,7.55
2018-01-25T10:09:45.608Z,5.03
2018-01-25T10:12:12.317Z,3.58
2018-01-25T10:14:39.260Z,5.45
2018-01-25T10:17:06.199Z,5.65
2018-01-25T10:19:32.977Z,4.80
2018-01-25T10:21:59.690Z,4.82
2018-01-25T10:24:30.103Z,8.13
2018-01-25T10:26:56.802Z,5.62
2018-01-25T10:29:23.790Z,6.07
2018-01-25T10:31:50.733Z,6.45
2018-01-25T10:34:17.799Z,5.12
2018-01-25T10:42:26.733Z,7.95
2018-01-25T10:44:53.872Z,5.70
2018-01-25T10:47:20.625Z,4.47
2018-01-25T10:59:55.215Z,6.85
2018-01-25T11:09:38.579Z,7.12
2018-01-25T11:12:05.355Z,5.95
2018-01-25T11:14:48.713Z,8.88
2018-01-25T11:19:55.187Z,6.75
2018-01-25T11:22:22.782Z,5.30
2018-01-25T11:24:49.710Z,4.70
2018-01-25T11:27:16.739Z,7.97
2018-01-25T11:35:15.912Z,6.05
2018-01-25T11:37:48.454Z,8.23
2018-01-25T11:40:15.543Z,6.03
2018-01-25T11:48:20.588Z,7.30
2018-01-25T11:53:26.638Z,5.30
2018-01-25T11:58:34.058Z,5.35
2018-01-25T12:01:01.655Z,8.18
2018-01-25T12:03:29.514Z,10.07
2018-01-25T12:05:57.712Z,6.87
2018-01-25T12:08:24.466Z,7.93
2018-01-25T12:10:51.585Z,5.72
2018-01-25T12:13:18.560Z,5.68
2018-01-25T12:18:30.362Z,6.75
2018-01-25T12:20:57.718Z,4.28
2018-01-25T12:23:24.629Z,5.55
2018-01-25T12:25:51.702Z,7.62
2018-01-25T12:28:19.169Z,10.20
2018-01-25T12:30:47.710Z,4.75
2018-01-25T12:33:14.937Z,8.80
2018-01-25T12:41:40.852Z,4.00
2018-01-25T13:11:31.047Z,7.10
2018-01-25T13:13:58.111Z,5.90
2018-01-25T13:19:11.594Z,6.00
2018-01-25T13:21:38.315Z,5.05
2018-01-25T13:24:31.459Z,4.05
2018-01-25T13:26:58.443Z,8.55
2018-01-25T13:29:25.142Z,4.65
2018-01-25T13:31:52.070Z,7.05
2018-01-25T13:34:18.990Z,7.82
2018-01-25T13:36:45.697Z,8.70
2018-01-25T13:39:12.803Z,6.50
2018-01-25T13:44:25.771Z,4.43
2018-01-25T13:46:52.714Z,8.13
2018-01-25T13:49:19.683Z,4.32
2018-01-25T13:51:46.627Z,7.12
2018-01-25T13:54:13.594Z,5.80
2018-01-25T13:56:40.565Z,4.65
2018-01-25T13:59:07.603Z,9.63
2018-01-25T14:01:35.074Z,4.80
2018-01-25T14:04:02.361Z,3.50
2018-01-25T14:06:29.313Z,3.53
2018-01-25T14:08:56.219Z,7.37
2018-01-25T14:13:55.583Z,7.72
2018-01-25T14:16:22.552Z,5.90
2018-01-25T14:18:49.607Z,7.68
2018-01-25T14:21:17.202Z,4.15
2018-01-25T14:23:44.311Z,3.83
2018-01-25T14:26:11.342Z,5.75
2018-01-25T14:28:38.355Z,7.05
2018-01-25T14:31:05.070Z,7.35
2018-01-25T14:33:31.784Z,3.30
2018-01-25T14:35:58.490Z,5.03
2018-01-25T14:38:25.230Z,3.17
2018-01-25T14:40:51.942Z,6.32
2018-01-25T14:43:18.647Z,6.43
2018-01-25T14:45:45.354Z,5.22
2018-01-25T14:48:12.077Z,4.80
2018-01-25T14:50:38.766Z,9.75
2018-01-25T14:53:05.523Z,4.87
2018-01-25T14:55:32.223Z,4.43
2018-01-25T14:57:58.947Z,4.93
2018-01-25T15:00:25.634Z,5.87
2018-01-25T15:02:52.659Z,5.50
2018-01-25T15:05:19.366Z,4.37
2018-01-25T15:07:46.106Z,3.83
2018-01-25T15:10:12.805Z,4.37
2018-01-25T15:12:39.514Z,6.00
2018-01-25T15:15:20.533Z,7.68
2018-01-25T15:17:47.266Z,3.60
2018-01-25T15:20:13.975Z,9.43
2018-01-25T15:27:51.310Z,5.10
2018-01-25T15:32:49.438Z,4.70
2018-01-25T15:35:16.468Z,5.80
2018-01-25T15:37:43.528Z,5.68
2018-01-25T15:40:10.611Z,5.45
2018-01-25T15:42:37.575Z,6.43
2018-01-25T15:45:04.715Z,5.47
2018-01-25T15:47:31.803Z,3.55
2018-01-25T15:49:58.454Z,7.80
2018-01-25T15:52:25.231Z,4.97
2018-01-25T16:10:06.593Z,5.68
2018-01-25T16:12:33.524Z,5.10
2018-01-25T16:15:00.587Z,3.58
2018-01-25T16:17:27.321Z,6.28
2018-01-25T16:19:54.015Z,8.13
2018-01-25T16:22:20.739Z,5.40
2018-01-25T16:27:32.947Z,3.83
2018-01-25T16:29:59.687Z,4.10
2018-01-25T16:32:26.505Z,7.43
2018-01-25T16:34:53.194Z,6.75
2018-01-25T16:53:50.324Z,5.75
2018-01-25T16:56:17.552Z,8.82
2018-01-25T16:58:44.491Z,4.25
2018-01-25T17:01:11.179Z,6.70
2018-01-25T17:03:37.919Z,7.60
2018-01-25T17:11:44.527Z,4.85
2018-01-25T17:14:11.253Z,3.45
2018-01-25T17:16:37.969Z,3.75
2018-01-25T17:19:04.708Z,5.47
2018-01-25T17:21:31.410Z,7.22
2018-01-25T17:23:58.438Z,3.92
2018-01-25T17:26:25.143Z,2.62
2018-01-25T17:28:52.147Z,2.97
2018-01-25T17:59:42.300Z,3.12
2018-01-25T18:11:38.756Z,4.97
2018-01-25T18:14:05.477Z,3.17
2018-01-25T18:16:32.425Z,4.20
2018-01-25T19:08:42.103Z,5.72
2018-01-25T19:11:08.860Z,6.78
2018-01-25T19:13:35.955Z,6.50
2018-01-25T19:16:02.678Z,4.90
2018-01-25T19:18:29.591Z,4.07
2018-01-25T19:20:56.528Z,5.45
2018-01-25T19:23:23.222Z,3.95
2018-01-25T19:25:49.975Z,5.57
2018-01-25T19:28:17.150Z,3.78
2018-01-25T19:33:37.598Z,6.62
2018-01-25T19:36:04.324Z,5.80
2018-01-25T19:38:31.043Z,4.47
2018-01-25T19:40:58.127Z,7.47
2018-01-25T19:43:24.832Z,2.87
2018-01-25T19:54:36.723Z,6.82
2018-01-25T19:57:03.438Z,6.72
2018-01-25T20:08:09.547Z,8.52
2018-01-25T20:10:36.289Z,4.32
2018-01-25T20:13:03.012Z,7.07
2018-01-25T20:22:32.880Z,5.35
2018-01-25T20:37:51.215Z,5.43
2018-01-25T20:40:18.895Z,4.65
2018-01-25T20:42:46.175Z,8.77
2018-01-25T21:13:44.910Z,11.98
2018-01-25T21:16:12.498Z,11.93
2018-01-25T22:53:28.187Z,21.25
2018-01-25T22:55:54.923Z,20.73
